Time;durP1;ratioP1;P1;durP2;ratioP2;P2;SDS_P1;SDS_P2;PMS_P1;PMS_P2;Temp;Humidity;BMP_temperature;BMP_pressure;BME280_temperature;BME280_humidity;BME280_pressure;Samples;Min_cycle;Max_cycle;Signal;HPM_P1;HPM_P2
2022/12/31 00:00:39;;;;;;;35.55;25.33;;;16.00;89.90;;;;;;5074645;28;20154;-77
2022/12/31 00:03:07;;;;;;;32.45;24.33;;;16.00;89.90;;;;;;5073605;28;20041;-74
2022/12/31 00:05:34;;;;;;;35.00;25.05;;;16.00;89.80;;;;;;5057260;28;20021;-77
2022/12/31 00:08:00;;;;;;;32.97;24.40;;;16.00;90.00;;;;;;5056953;28;20059;-77
2022/12/31 00:10:26;;;;;;;30.05;23.95;;;16.00;89.90;;;;;;5079204;28;20036;-78
2022/12/31 00:12:52;;;;;;;32.30;23.63;;;16.00;89.80;;;;;;5057000;28;20052;-76
2022/12/31 00:15:18;;;;;;;32.53;24.92;;;16.00;89.50;;;;;;5075015;28;20044;-77
2022/12/31 00:17:44;;;;;;;32.35;25.15;;;16.10;89.70;;;;;;5056738;28;20037;-77
2022/12/31 00:20:10;;;;;;;31.60;24.70;;;16.10;89.80;;;;;;5075229;28;20072;-77
2022/12/31 00:22:35;;;;;;;31.60;25.70;;;16.10;89.60;;;;;;5075084;28;20025;-76
2022/12/31 00:25:02;;;;;;;33.00;25.30;;;16.10;89.60;;;;;;5074571;28;20033;-77
2022/12/31 00:27:30;;;;;;;30.92;25.23;;;16.10;89.50;;;;;;5056838;28;20036;-77
2022/12/31 00:29:55;;;;;;;30.45;26.90;;;16.10;89.40;;;;;;5056721;28;20033;-75
2022/12/31 00:32:21;;;;;;;30.08;25.23;;;16.00;89.10;;;;;;5074405;28;20085;-75
2022/12/31 00:34:47;;;;;;;29.65;25.35;;;16.00;89.00;;;;;;5074330;28;20052;-75
2022/12/31 00:37:12;;;;;;;34.50;25.90;;;15.90;89.00;;;;;;5056074;28;20395;-77
2022/12/31 00:39:38;;;;;;;28.73;24.55;;;15.90;89.10;;;;;;5074187;28;20090;-76
2022/12/31 00:42:04;;;;;;;31.33;24.83;;;15.90;89.10;;;;;;5074198;28;20442;-76
2022/12/31 00:44:29;;;;;;;30.55;24.15;;;15.90;89.20;;;;;;5072935;28;20052;-76
2022/12/31 00:46:55;;;;;;;30.65;23.75;;;15.90;89.20;;;;;;5073929;28;20025;-78
2022/12/31 00:49:21;;;;;;;33.10;25.25;;;15.90;89.20;;;;;;5056230;28;20032;-77
2022/12/31 00:51:47;;;;;;;30.55;24.60;;;15.90;89.30;;;;;;5056199;28;20067;-79
2022/12/31 00:54:13;;;;;;;39.28;25.85;;;15.90;89.20;;;;;;5074045;28;20040;-77
2022/12/31 00:56:38;;;;;;;33.78;24.90;;;15.90;89.30;;;;;;5055997;28;20050;-78
2022/12/31 00:59:04;;;;;;;30.02;24.13;;;15.90;89.30;;;;;;5056001;28;20111;-77
2022/12/31 01:01:33;;;;;;;31.90;25.35;;;15.80;89.40;;;;;;5059599;28;20035;-77
2022/12/31 01:04:06;;;;;;;32.75;26.10;;;15.80;89.20;;;;;;5074135;28;20449;-77
2022/12/31 01:06:32;;;;;;;31.70;26.23;;;15.80;89.40;;;;;;5055901;28;20105;-78
2022/12/31 01:08:57;;;;;;;31.02;24.67;;;15.80;89.40;;;;;;5074310;28;20069;-77
2022/12/31 01:11:28;;;;;;;30.80;25.05;;;15.80;89.40;;;;;;5055897;28;20484;-77
2022/12/31 01:14:14;;;;;;;34.78;24.83;;;15.70;89.60;;;;;;5055542;28;20139;-76
2022/12/31 01:16:48;;;;;;;32.63;26.08;;;15.70;89.90;;;;;;5072174;28;20488;-75
2022/12/31 01:19:21;;;;;;;31.27;24.30;;;15.70;89.60;;;;;;5055668;28;20090;-76
2022/12/31 01:21:48;;;;;;;30.08;23.95;;;15.70;89.60;;;;;;5055690;28;20119;-76
2022/12/31 01:24:14;;;;;;;29.92;24.27;;;15.60;89.80;;;;;;5055092;28;20601;-71
2022/12/31 01:26:41;;;;;;;29.48;24.02;;;15.60;89.90;;;;;;5073022;28;20036;-76
2022/12/31 01:29:07;;;;;;;32.67;25.90;;;15.60;90.00;;;;;;5073105;28;20108;-74
2022/12/31 01:31:34;;;;;;;34.63;26.00;;;15.60;90.00;;;;;;5055480;28;20510;-77
2022/12/31 01:34:00;;;;;;;35.70;27.45;;;15.50;89.90;;;;;;5073529;28;20044;-76
2022/12/31 01:36:28;;;;;;;33.25;24.80;;;15.50;89.80;;;;;;5073542;28;20032;-77
2022/12/31 01:38:56;;;;;;;30.42;24.63;;;15.50;89.80;;;;;;5055061;28;20032;-76
2022/12/31 01:41:25;;;;;;;35.88;25.40;;;15.50;89.90;;;;;;5073506;28;20716;-76
2022/12/31 01:43:53;;;;;;;29.98;24.65;;;15.50;90.00;;;;;;5055048;28;20049;-75
2022/12/31 01:46:39;;;;;;;29.95;24.05;;;15.50;90.10;;;;;;5073021;28;20443;-77
2022/12/31 01:49:26;;;;;;;30.48;24.40;;;15.50;90.10;;;;;;5054935;28;20111;-75
2022/12/31 01:52:06;;;;;;;33.97;26.25;;;15.50;89.90;;;;;;5074945;28;20395;-75
2022/12/31 01:54:38;;;;;;;36.00;26.17;;;15.50;89.70;;;;;;5056981;28;20044;-76
2022/12/31 01:57:04;;;;;;;31.50;25.23;;;15.50;90.00;;;;;;5054593;28;20037;-75
2022/12/31 01:59:30;;;;;;;34.95;26.73;;;15.40;90.00;;;;;;5072597;28;20052;-74
2022/12/31 02:01:57;;;;;;;31.48;25.73;;;15.40;90.10;;;;;;5072355;28;20067;-77
2022/12/31 02:04:25;;;;;;;34.90;25.50;;;15.40;90.10;;;;;;5072857;28;20049;-76
2022/12/31 02:07:05;;;;;;;34.38;26.25;;;15.40;90.10;;;;;;5054550;28;20452;-76
2022/12/31 02:09:33;;;;;;;38.60;28.92;;;15.30;90.00;;;;;;5072466;28;20059;-76
2022/12/31 02:11:59;;;;;;;35.47;28.45;;;15.30;90.30;;;;;;5054258;28;20032;-77
2022/12/31 02:14:36;;;;;;;50.22;37.53;;;15.20;90.20;;;;;;5054280;28;20090;-76
2022/12/31 02:17:40;;;;;;;51.95;42.00;;;15.20;90.30;;;;;;5072467;28;20033;-75
2022/12/31 02:20:28;;;;;;;54.10;44.13;;;15.20;90.20;;;;;;5054581;28;20040;-76
2022/12/31 02:22:59;;;;;;;51.78;43.05;;;15.10;90.20;;;;;;5072059;28;20060;-75
2022/12/31 02:25:39;;;;;;;52.25;43.92;;;15.10;90.40;;;;;;5054597;28;20039;-77
2022/12/31 02:28:30;;;;;;;61.70;45.72;;;15.10;90.20;;;;;;5054458;28;20045;-77
2022/12/31 02:31:17;;;;;;;61.17;46.88;;;15.10;90.50;;;;;;5072268;28;20040;-75
2022/12/31 02:33:57;;;;;;;62.45;48.83;;;15.10;90.30;;;;;;5054383;28;20210;-76
2022/12/31 02:36:31;;;;;;;62.53;44.00;;;15.10;90.20;;;;;;5072641;28;20033;-76
2022/12/31 02:38:58;;;;;;;51.97;39.15;;;15.10;90.40;;;;;;5054396;28;20032;-76
2022/12/31 02:44:27;;;;;;;45.38;33.20;;;15.10;90.20;;;;;;5074006;28;20067;-75
2022/12/31 02:47:07;;;;;;;43.78;33.22;;;15.10;90.40;;;;;;5054904;28;20067;-78
2022/12/31 02:50:17;;;;;;;44.38;32.67;;;15.20;90.20;;;;;;5054604;28;20040;-76
2022/12/31 02:52:43;;;;;;;43.50;31.67;;;15.10;90.20;;;;;;5041185;28;20506;-76
2022/12/31 02:55:33;;;;;;;42.53;31.17;;;15.20;90.40;;;;;;5072466;28;20037;-76
2022/12/31 02:58:13;;;;;;;42.05;30.90;;;15.20;90.20;;;;;;5054246;28;20032;-75
2022/12/31 03:03:35;;;;;;;40.42;30.23;;;15.20;90.40;;;;;;5072211;28;20024;-76
2022/12/31 03:06:03;;;;;;;33.83;26.63;;;15.20;90.50;;;;;;5071942;28;20064;-76
2022/12/31 03:08:29;;;;;;;34.28;27.00;;;15.20;90.70;;;;;;5056660;28;20089;-76
2022/12/31 03:10:55;;;;;;;34.17;26.27;;;15.20;90.40;;;;;;5057962;28;20040;-76
2022/12/31 03:13:22;;;;;;;31.63;24.00;;;15.20;90.40;;;;;;5058109;28;20044;-76
2022/12/31 03:15:48;;;;;;;32.10;24.42;;;15.20;90.50;;;;;;5076541;28;20037;-76
2022/12/31 03:18:16;;;;;;;29.83;24.20;;;15.30;90.40;;;;;;5057931;28;20403;-76
2022/12/31 03:23:40;;;;;;;32.55;23.75;;;15.30;90.20;;;;;;5075881;28;20102;-75
2022/12/31 03:26:12;;;;;;;31.77;23.75;;;15.30;90.40;;;;;;5075520;28;20025;-75
2022/12/31 03:28:40;;;;;;;30.63;21.73;;;15.30;90.30;;;;;;5075403;28;20055;-75
2022/12/31 03:31:06;;;;;;;31.40;22.38;;;15.30;90.40;;;;;;5057406;28;20041;-76
2022/12/31 03:33:35;;;;;;;26.98;21.80;;;15.30;90.30;;;;;;5073935;28;20040;-75
2022/12/31 03:36:06;;;;;;;28.25;22.70;;;15.30;90.30;;;;;;5057752;28;20035;-75
2022/12/31 03:38:32;;;;;;;30.33;21.75;;;15.20;90.20;;;;;;5078125;28;20406;-76
2022/12/31 03:40:57;;;;;;;26.17;20.20;;;15.20;90.30;;;;;;5059619;28;20033;-75
2022/12/31 03:43:23;;;;;;;23.73;19.83;;;15.20;90.20;;;;;;5058048;28;20071;-76
2022/12/31 03:45:50;;;;;;;29.38;20.77;;;15.30;90.30;;;;;;5057348;28;20032;-77
2022/12/31 03:48:17;;;;;;;26.00;20.73;;;15.20;90.30;;;;;;5057482;28;20471;-77
2022/12/31 03:50:42;;;;;;;25.13;19.98;;;15.20;90.30;;;;;;5057468;28;20119;-76
2022/12/31 03:53:08;;;;;;;27.17;21.85;;;15.20;90.30;;;;;;5056996;28;20452;-77
2022/12/31 03:55:34;;;;;;;35.00;22.08;;;15.20;90.40;;;;;;5075078;28;20036;-76
2022/12/31 03:57:59;;;;;;;29.88;19.92;;;15.20;90.40;;;;;;5074845;28;20094;-76
2022/12/31 04:00:25;;;;;;;26.58;20.08;;;15.20;90.40;;;;;;5074955;28;20024;-76
2022/12/31 04:02:52;;;;;;;32.22;19.73;;;15.20;90.40;;;;;;5056995;28;20473;-76
2022/12/31 04:05:18;;;;;;;29.52;20.30;;;15.10;90.50;;;;;;5056941;28;20119;-76
2022/12/31 04:07:45;;;;;;;29.67;20.85;;;15.10;90.50;;;;;;5056809;28;20114;-75
2022/12/31 04:10:14;;;;;;;29.27;19.92;;;15.10;90.50;;;;;;5074858;28;20036;-76
2022/12/31 04:12:39;;;;;;;26.90;19.65;;;15.10;90.50;;;;;;5056505;28;20032;-76
2022/12/31 04:15:07;;;;;;;24.98;20.30;;;15.10;90.50;;;;;;5074824;28;20044;-76
2022/12/31 04:17:33;;;;;;;28.08;21.42;;;15.10;90.60;;;;;;5073398;28;20048;-76
2022/12/31 04:19:58;;;;;;;26.45;20.02;;;15.00;90.50;;;;;;5056383;28;20565;-76
2022/12/31 04:22:24;;;;;;;30.00;20.25;;;15.00;90.50;;;;;;5074661;28;20039;-75
2022/12/31 04:24:50;;;;;;;27.35;21.77;;;15.00;90.60;;;;;;5074804;28;20064;-76
2022/12/31 04:27:16;;;;;;;29.58;21.40;;;15.00;90.60;;;;;;5057202;28;20499;-75
2022/12/31 04:29:41;;;;;;;30.67;22.08;;;14.90;90.60;;;;;;5059084;28;20056;-76
2022/12/31 04:32:07;;;;;;;28.85;22.52;;;14.90;90.60;;;;;;5057812;28;20056;-76
2022/12/31 04:34:34;;;;;;;32.38;22.88;;;14.90;90.60;;;;;;5074289;28;20044;-75
2022/12/31 04:37:00;;;;;;;34.03;22.88;;;14.80;90.60;;;;;;5056219;28;20052;-75
2022/12/31 04:39:26;;;;;;;36.53;23.48;;;14.80;90.70;;;;;;5074520;28;20392;-76
2022/12/31 04:41:53;;;;;;;29.52;22.60;;;14.80;91.00;;;;;;5074509;28;20029;-76
2022/12/31 04:44:19;;;;;;;30.42;23.27;;;14.80;90.70;;;;;;5056312;28;20052;-75
2022/12/31 04:46:45;;;;;;;31.58;24.45;;;14.80;90.70;;;;;;5072947;28;20202;-77
2022/12/31 04:49:11;;;;;;;33.78;23.92;;;14.80;90.70;;;;;;5074127;28;20380;-76
2022/12/31 04:51:37;;;;;;;31.38;23.83;;;14.70;90.70;;;;;;5074203;28;20588;-76
2022/12/31 04:54:03;;;;;;;34.58;24.63;;;14.70;90.80;;;;;;5073984;28;20044;-75
2022/12/31 04:56:29;;;;;;;33.08;23.52;;;14.60;90.90;;;;;;5055925;28;20402;-76
2022/12/31 04:58:55;;;;;;;35.33;24.52;;;14.60;91.00;;;;;;5056156;28;20107;-73
2022/12/31 05:01:21;;;;;;;33.50;23.77;;;14.60;91.00;;;;;;5056809;28;20399;-76
2022/12/31 05:03:47;;;;;;;33.00;24.30;;;14.60;91.00;;;;;;5056241;28;20032;-76
2022/12/31 05:06:16;;;;;;;32.00;24.88;;;14.60;91.10;;;;;;5073885;28;20494;-76
2022/12/31 05:08:42;;;;;;;34.67;24.15;;;14.60;91.00;;;;;;5056290;28;20028;-76
2022/12/31 05:11:08;;;;;;;32.60;23.13;;;14.70;91.10;;;;;;5074077;28;20078;-76
2022/12/31 05:13:34;;;;;;;32.78;24.65;;;14.70;91.00;;;;;;5073741;28;20045;-75
2022/12/31 05:16:01;;;;;;;29.55;24.13;;;14.60;91.00;;;;;;5073628;28;20036;-76
2022/12/31 05:18:27;;;;;;;30.70;24.05;;;14.70;91.10;;;;;;5073764;28;20036;-75
2022/12/31 05:20:52;;;;;;;34.13;24.83;;;14.60;91.10;;;;;;5058646;28;20067;-75
2022/12/31 05:23:18;;;;;;;29.75;24.80;;;14.60;91.00;;;;;;5074199;28;20044;-76
2022/12/31 05:25:45;;;;;;;31.27;24.77;;;14.60;91.10;;;;;;5055167;28;20425;-76
2022/12/31 05:28:11;;;;;;;34.35;25.58;;;14.60;91.10;;;;;;5073203;28;20028;-74
2022/12/31 05:30:36;;;;;;;34.22;25.13;;;14.60;91.10;;;;;;5072761;28;20047;-75
2022/12/31 05:33:02;;;;;;;36.17;25.23;;;14.60;91.10;;;;;;5055356;28;20032;-75
2022/12/31 05:35:28;;;;;;;32.38;25.08;;;14.60;91.10;;;;;;5073145;28;20399;-77
2022/12/31 05:37:54;;;;;;;29.73;24.88;;;14.60;91.10;;;;;;5072821;28;20063;-77
2022/12/31 05:40:20;;;;;;;37.92;26.20;;;14.60;91.10;;;;;;5055348;28;20088;-76
2022/12/31 05:42:45;;;;;;;29.88;24.90;;;14.60;91.10;;;;;;5055275;28;20492;-76
2022/12/31 05:45:14;;;;;;;36.58;25.85;;;14.60;91.10;;;;;;5055046;28;20051;-76
2022/12/31 05:47:41;;;;;;;35.63;25.45;;;14.60;91.20;;;;;;5073046;28;20024;-76
2022/12/31 05:50:09;;;;;;;34.20;24.33;;;14.60;91.20;;;;;;5073037;28;20438;-76
2022/12/31 05:52:35;;;;;;;30.17;23.70;;;14.50;91.20;;;;;;5055223;28;20036;-76
2022/12/31 05:55:01;;;;;;;28.88;23.30;;;14.50;91.20;;;;;;5072881;28;20444;-76
2022/12/31 05:57:27;;;;;;;27.63;21.92;;;14.50;91.30;;;;;;5072746;28;20044;-76
2022/12/31 05:59:52;;;;;;;28.60;21.90;;;14.50;91.20;;;;;;5073049;28;20051;-76
2022/12/31 06:02:21;;;;;;;33.67;22.27;;;14.50;91.30;;;;;;5072769;28;20093;-76
2022/12/31 06:04:47;;;;;;;31.92;24.05;;;14.50;91.30;;;;;;5054776;28;20031;-77
2022/12/31 06:07:13;;;;;;;30.27;22.83;;;14.50;91.30;;;;;;5054718;28;20480;-76
2022/12/31 06:09:39;;;;;;;27.45;20.85;;;14.60;91.30;;;;;;5054720;28;20115;-76
2022/12/31 06:12:06;;;;;;;31.45;21.02;;;14.60;91.20;;;;;;5057236;28;20462;-77
2022/12/31 06:14:31;;;;;;;26.50;20.55;;;14.60;91.30;;;;;;5057247;28;20049;-76
2022/12/31 06:16:57;;;;;;;27.00;20.90;;;14.60;91.30;;;;;;5054713;28;20391;-76
2022/12/31 06:19:23;;;;;;;29.02;19.27;;;14.60;91.20;;;;;;5071340;28;20064;-76
2022/12/31 06:21:49;;;;;;;24.95;19.27;;;14.50;91.20;;;;;;5054206;28;20028;-75
2022/12/31 06:24:14;;;;;;;31.40;19.95;;;14.50;91.20;;;;;;5054718;28;20040;-76
2022/12/31 06:26:40;;;;;;;34.00;20.58;;;14.50;91.40;;;;;;5054451;28;20100;-75
2022/12/31 06:29:06;;;;;;;29.50;20.90;;;14.50;91.30;;;;;;5054544;28;20025;-76
2022/12/31 06:31:32;;;;;;;28.48;21.35;;;14.50;91.40;;;;;;5054526;28;20029;-76
2022/12/31 06:33:58;;;;;;;29.88;20.75;;;14.40;91.40;;;;;;5054202;28;20071;-76
2022/12/31 06:36:25;;;;;;;28.88;20.25;;;14.40;91.40;;;;;;5072537;28;20116;-76
2022/12/31 06:38:51;;;;;;;25.98;19.23;;;14.40;91.40;;;;;;5072654;28;20028;-76
2022/12/31 06:41:18;;;;;;;31.02;20.40;;;14.40;91.40;;;;;;5070996;28;20400;-76
2022/12/31 06:43:44;;;;;;;29.88;19.20;;;14.50;91.50;;;;;;5071673;28;20553;-76
2022/12/31 06:46:12;;;;;;;23.92;19.20;;;14.50;91.50;;;;;;5072327;28;20039;-77
2022/12/31 06:48:38;;;;;;;26.42;18.38;;;14.50;91.50;;;;;;5054520;28;20483;-75
2022/12/31 06:51:11;;;;;;;30.58;20.33;;;14.60;91.50;;;;;;5055350;28;20029;-75
2022/12/31 06:53:37;;;;;;;26.55;19.80;;;14.50;91.50;;;;;;5072898;28;20364;-75
2022/12/31 06:56:13;;;;;;;29.77;20.27;;;14.50;91.40;;;;;;5056163;28;20031;-75
2022/12/31 06:58:39;;;;;;;26.52;20.30;;;14.40;91.50;;;;;;5054506;28;20119;-77
2022/12/31 07:01:26;;;;;;;27.88;19.25;;;14.40;91.60;;;;;;5072491;28;20111;-76
2022/12/31 07:04:21;;;;;;;24.17;18.88;;;14.40;91.40;;;;;;5057539;28;20119;-76
2022/12/31 07:07:22;;;;;;;24.52;17.40;;;14.40;91.60;;;;;;5072348;28;20041;-77
2022/12/31 07:10:12;;;;;;;33.92;20.60;;;14.40;91.50;;;;;;5040590;28;20093;-75
2022/12/31 07:12:40;;;;;;;29.80;20.95;;;14.40;91.60;;;;;;5053603;28;20041;-76
2022/12/31 07:15:22;;;;;;;27.95;19.60;;;14.40;91.50;;;;;;5053595;28;20472;-76
2022/12/31 07:17:51;;;;;;;29.75;20.30;;;14.50;91.60;;;;;;5053626;28;20040;-76
2022/12/31 07:20:17;;;;;;;27.15;19.08;;;14.60;91.70;;;;;;5053735;28;20041;-76
2022/12/31 07:22:44;;;;;;;31.38;20.13;;;14.60;91.50;;;;;;5071802;28;20024;-77
2022/12/31 07:25:18;;;;;;;31.02;19.88;;;14.70;91.60;;;;;;5053708;28;20113;-76
2022/12/31 07:27:58;;;;;;;31.45;19.48;;;14.70;91.60;;;;;;5054406;28;20098;-77
2022/12/31 07:30:45;;;;;;;30.90;19.48;;;14.80;91.60;;;;;;5071929;28;20111;-76
2022/12/31 07:33:46;;;;;;;26.73;18.95;;;14.90;91.40;;;;;;5054007;28;20063;-76
2022/12/31 07:36:29;;;;;;;26.70;18.55;;;14.90;91.40;;;;;;5028748;28;20036;-75
2022/12/31 07:39:20;;;;;;;29.05;19.80;;;14.90;91.40;;;;;;5072368;28;20041;-76
2022/12/31 07:42:03;;;;;;;27.17;18.30;;;15.00;91.30;;;;;;5054337;28;20036;-76
2022/12/31 07:44:58;;;;;;;31.05;19.98;;;15.10;91.20;;;;;;5053918;28;20056;-76
2022/12/31 07:47:26;;;;;;;31.48;19.85;;;15.20;91.20;;;;;;5040625;28;20069;-76
2022/12/31 07:49:53;;;;;;;31.35;20.45;;;15.20;91.30;;;;;;5071417;28;20484;-76
2022/12/31 07:52:19;;;;;;;29.35;20.83;;;15.20;91.20;;;;;;5071227;28;20039;-77
2022/12/31 07:54:45;;;;;;;28.77;20.20;;;15.30;91.20;;;;;;5075242;28;20074;-76
2022/12/31 07:57:13;;;;;;;31.05;20.52;;;15.30;91.20;;;;;;5078073;28;20040;-76
2022/12/31 07:59:41;;;;;;;31.73;21.52;;;15.30;91.20;;;;;;5057996;28;20510;-76
2022/12/31 08:02:13;;;;;;;29.50;20.88;;;15.20;90.90;;;;;;5075237;28;20104;-74
2022/12/31 08:04:47;;;;;;;30.38;21.30;;;15.20;91.00;;;;;;5056967;28;20487;-77
2022/12/31 08:07:29;;;;;;;29.35;21.20;;;15.20;90.90;;;;;;5074875;28;20036;-76
2022/12/31 08:10:20;;;;;;;32.33;21.23;;;15.20;91.10;;;;;;5074649;28;20102;-77
2022/12/31 08:12:48;;;;;;;33.15;21.85;;;15.20;91.00;;;;;;5074249;28;20071;-76
2022/12/31 08:15:17;;;;;;;32.38;22.63;;;15.30;91.10;;;;;;5057072;28;20041;-77
2022/12/31 08:17:44;;;;;;;28.63;20.85;;;15.30;91.10;;;;;;5056460;28;20561;-76
2022/12/31 08:20:16;;;;;;;30.88;21.75;;;15.30;91.10;;;;;;5074621;28;20028;-76
2022/12/31 08:23:03;;;;;;;30.95;21.67;;;15.30;91.10;;;;;;5056410;28;20060;-77
2022/12/31 08:25:37;;;;;;;34.33;22.08;;;15.30;90.80;;;;;;5074146;28;20037;-76
2022/12/31 08:28:20;;;;;;;31.92;21.35;;;15.30;90.70;;;;;;5074693;28;20027;-76
2022/12/31 08:30:59;;;;;;;29.80;21.45;;;15.20;90.60;;;;;;5056873;28;20029;-76
2022/12/31 08:33:45;;;;;;;32.63;23.13;;;15.20;90.70;;;;;;5056153;28;20068;-76
2022/12/31 08:36:19;;;;;;;30.50;21.13;;;15.20;90.60;;;;;;5074503;28;20131;-75
2022/12/31 08:38:48;;;;;;;29.77;21.98;;;15.30;90.60;;;;;;5074171;28;20055;-76
2022/12/31 08:41:25;;;;;;;33.47;21.50;;;15.30;90.80;;;;;;5074392;28;20043;-76
2022/12/31 08:44:13;;;;;;;35.20;21.00;;;15.30;90.50;;;;;;5075637;28;20037;-75
2022/12/31 08:46:56;;;;;;;29.27;22.33;;;15.40;90.50;;;;;;5057849;28;20404;-77
2022/12/31 08:49:24;;;;;;;32.60;22.20;;;15.40;90.60;;;;;;5059187;28;20060;-76
2022/12/31 08:51:50;;;;;;;32.28;21.58;;;15.50;90.50;;;;;;5074357;28;20504;-77
2022/12/31 08:54:16;;;;;;;30.88;22.10;;;15.50;90.40;;;;;;5074341;28;20040;-76
2022/12/31 08:57:19;;;;;;;30.90;21.20;;;15.50;90.20;;;;;;5056073;28;20036;-76
2022/12/31 09:00:03;;;;;;;30.30;20.75;;;15.60;90.10;;;;;;5074047;28;20060;-77
2022/12/31 09:02:32;;;;;;;35.60;21.52;;;15.60;90.00;;;;;;5073627;28;20045;-77
2022/12/31 09:05:16;;;;;;;27.30;20.85;;;15.70;90.10;;;;;;5054348;28;20094;-76
2022/12/31 09:08:08;;;;;;;31.17;21.95;;;15.80;90.00;;;;;;5055344;28;20073;-77
2022/12/31 09:10:49;;;;;;;30.77;22.17;;;15.80;89.70;;;;;;5055397;28;20032;-77
2022/12/31 09:13:40;;;;;;;27.95;22.23;;;15.90;89.60;;;;;;5055050;28;20044;-77
2022/12/31 09:16:19;;;;;;;32.25;23.02;;;16.00;89.80;;;;;;5073008;28;20029;-77
2022/12/31 09:18:45;;;;;;;28.02;21.30;;;16.00;89.30;;;;;;5073064;28;20031;-77
2022/12/31 09:21:13;;;;;;;31.42;21.73;;;16.10;89.60;;;;;;5054875;28;20120;-75
2022/12/31 09:23:40;;;;;;;28.73;20.50;;;16.10;89.40;;;;;;5054790;28;20459;-76
2022/12/31 09:26:14;;;;;;;34.25;23.35;;;16.20;89.30;;;;;;5054838;28;20120;-76
2022/12/31 09:28:47;;;;;;;30.27;20.52;;;16.20;89.00;;;;;;5072614;28;20036;-74
2022/12/31 09:31:20;;;;;;;27.55;20.80;;;16.30;88.40;;;;;;5072833;28;20052;-77
2022/12/31 09:34:01;;;;;;;33.45;22.40;;;16.40;88.70;;;;;;5072604;28;20048;-76
2022/12/31 09:36:43;;;;;;;29.67;21.10;;;16.40;88.00;;;;;;5054531;28;20033;-76
2022/12/31 09:39:30;;;;;;;29.17;20.88;;;16.50;88.30;;;;;;5055516;28;20072;-77
2022/12/31 09:41:59;;;;;;;27.52;20.85;;;16.50;88.10;;;;;;5056845;28;20439;-77
2022/12/31 09:44:49;;;;;;;30.88;21.73;;;16.60;87.40;;;;;;5072132;28;20051;-77
2022/12/31 09:47:32;;;;;;;30.00;20.65;;;16.60;87.70;;;;;;5054793;28;20041;-77
2022/12/31 09:50:31;;;;;;;27.75;20.67;;;16.60;87.50;;;;;;5054900;28;20127;-76
2022/12/31 09:53:37;;;;;;;24.13;18.52;;;16.70;87.30;;;;;;5054562;28;20137;-77
2022/12/31 09:56:30;;;;;;;26.65;19.38;;;16.80;87.10;;;;;;5072142;28;20548;-76
2022/12/31 09:59:17;;;;;;;30.38;19.50;;;16.80;86.60;;;;;;5072659;28;20074;-77
2022/12/31 10:01:52;;;;;;;28.90;18.08;;;16.90;86.50;;;;;;5055040;28;20036;-78
2022/12/31 10:04:40;;;;;;;30.08;18.67;;;17.00;85.50;;;;;;5054900;28;20048;-77
2022/12/31 10:07:44;;;;;;;25.40;16.83;;;17.10;86.00;;;;;;5072256;28;20029;-76
2022/12/31 10:10:29;;;;;;;22.73;14.40;;;17.20;85.80;;;;;;5043814;28;20039;-75
2022/12/31 10:13:16;;;;;;;24.42;13.02;;;17.30;84.80;;;;;;5043795;28;20036;-76
2022/12/31 10:15:56;;;;;;;22.05;12.55;;;17.30;84.40;;;;;;5054630;28;20508;-75
2022/12/31 10:18:43;;;;;;;24.02;13.70;;;17.40;84.40;;;;;;5073096;28;20029;-77
2022/12/31 10:21:26;;;;;;;22.08;14.82;;;17.50;83.70;;;;;;5072169;28;20131;-77
2022/12/31 10:24:13;;;;;;;21.70;14.43;;;17.60;83.60;;;;;;5053906;28;20040;-76
2022/12/31 10:27:21;;;;;;;26.67;14.45;;;17.70;83.30;;;;;;5071669;28;20047;-77
2022/12/31 10:30:02;;;;;;;23.42;12.90;;;17.80;83.10;;;;;;5053922;28;20040;-76
2022/12/31 10:32:34;;;;;;;18.67;11.40;;;17.90;83.20;;;;;;5057319;28;20059;-77
2022/12/31 10:34:59;;;;;;;24.58;12.68;;;18.00;82.90;;;;;;5072054;28;20040;-76
2022/12/31 10:37:34;;;;;;;23.83;12.63;;;18.00;82.60;;;;;;5053991;28;20029;-76
2022/12/31 10:40:37;;;;;;;20.98;12.02;;;18.10;82.60;;;;;;5071954;28;20036;-77
2022/12/31 10:43:25;;;;;;;15.82;10.80;;;18.20;82.10;;;;;;5046844;28;20036;-77
2022/12/31 10:46:18;;;;;;;18.02;11.75;;;18.30;82.10;;;;;;5033565;28;20102;-77
2022/12/31 10:49:10;;;;;;;18.27;10.52;;;18.30;81.40;;;;;;5033434;28;20119;-77
2022/12/31 10:52:23;;;;;;;20.88;10.48;;;18.40;81.10;;;;;;5051359;28;20029;-76
2022/12/31 10:55:16;;;;;;;18.83;11.70;;;18.40;80.50;;;;;;5017885;28;20129;-76
2022/12/31 10:58:07;;;;;;;17.50;11.15;;;18.40;80.00;;;;;;5051150;28;20041;-77
2022/12/31 11:01:16;;;;;;;21.85;11.88;;;18.50;79.90;;;;;;5051537;28;20124;-78
2022/12/31 11:04:18;;;;;;;22.75;12.40;;;18.60;80.10;;;;;;5051533;28;20060;-76
2022/12/31 11:07:02;;;;;;;19.85;12.43;;;18.60;79.90;;;;;;5033503;28;20099;-75
2022/12/31 11:09:37;;;;;;;20.00;11.95;;;18.70;80.10;;;;;;5033536;28;20037;-77
2022/12/31 11:12:25;;;;;;;18.00;11.82;;;18.80;79.30;;;;;;5051448;28;20107;-76
2022/12/31 11:14:56;;;;;;;19.80;11.93;;;18.80;79.40;;;;;;5034050;28;20443;-76
2022/12/31 11:17:30;;;;;;;19.38;11.43;;;18.90;79.30;;;;;;5034208;28;20099;-76
2022/12/31 11:20:02;;;;;;;23.95;13.35;;;18.90;78.70;;;;;;5052563;28;20086;-78
2022/12/31 11:22:33;;;;;;;18.85;11.38;;;18.90;78.90;;;;;;5053421;28;20072;-77
2022/12/31 11:25:11;;;;;;;25.85;12.45;;;19.00;78.70;;;;;;5035195;28;20064;-76
2022/12/31 11:27:40;;;;;;;20.00;10.77;;;19.10;78.10;;;;;;5033699;28;20041;-75
2022/12/31 11:30:24;;;;;;;17.00;9.73;;;19.00;78.00;;;;;;5036850;28;20607;-76
2022/12/31 11:33:08;;;;;;;20.75;10.13;;;19.10;78.00;;;;;;5055432;28;20087;-76
2022/12/31 11:35:53;;;;;;;;;;;19.10;77.90;;;;;;5037745;28;20404;-75
2022/12/31 11:38:27;;;;;;;17.55;8.38;;;19.10;77.10;;;;;;5055257;28;19912;-76
2022/12/31 11:41:04;;;;;;;18.48;8.30;;;19.20;77.70;;;;;;5055266;28;20037;-77
2022/12/31 11:43:37;;;;;;;17.00;7.28;;;19.20;77.80;;;;;;5039963;28;20516;-78
2022/12/31 11:46:37;;;;;;;12.98;6.82;;;19.20;77.80;;;;;;5057152;28;20036;-77
2022/12/31 11:49:38;;;;;;;20.70;5.63;;;19.30;77.90;;;;;;5044079;28;20113;-76
2022/12/31 11:52:19;;;;;;;20.90;5.72;;;19.30;77.40;;;;;;5043883;28;20036;-76
2022/12/31 11:55:02;;;;;;;12.05;4.80;;;19.30;77.10;;;;;;5075158;28;20041;-76
2022/12/31 11:57:36;;;;;;;11.85;4.57;;;19.20;76.90;;;;;;5057333;28;20086;-76
2022/12/31 12:00:23;;;;;;;11.93;5.03;;;19.10;76.70;;;;;;5056637;28;20064;-76
2022/12/31 12:02:59;;;;;;;15.07;6.30;;;19.10;76.80;;;;;;5056900;28;20056;-78
2022/12/31 12:05:26;;;;;;;17.88;7.00;;;19.20;76.90;;;;;;5056834;28;20039;-76
2022/12/31 12:07:53;;;;;;;13.52;5.57;;;19.40;76.50;;;;;;5057079;28;20082;-76
2022/12/31 12:10:28;;;;;;;16.50;4.43;;;19.60;76.10;;;;;;5074540;28;20029;-76
2022/12/31 12:12:55;;;;;;;16.27;4.38;;;19.60;75.80;;;;;;5057155;28;20048;-78
2022/12/31 12:15:27;;;;;;;15.27;4.07;;;19.60;75.40;;;;;;5076841;28;20036;-76
2022/12/31 12:17:58;;;;;;;16.67;4.50;;;19.70;75.40;;;;;;5056570;28;20128;-76
2022/12/31 12:20:46;;;;;;;19.13;4.90;;;19.90;76.00;;;;;;5040804;28;20051;-75
2022/12/31 12:23:15;;;;;;;15.35;5.07;;;20.00;75.00;;;;;;5056474;28;20037;-77
2022/12/31 12:25:43;;;;;;;12.23;4.28;;;20.00;74.30;;;;;;5074253;28;20032;-78
2022/12/31 12:28:17;;;;;;;12.63;3.88;;;20.10;74.20;;;;;;5073809;28;20037;-76
2022/12/31 12:30:45;;;;;;;20.70;5.13;;;20.20;73.90;;;;;;5074178;28;20043;-76
2022/12/31 12:33:16;;;;;;;14.52;5.28;;;20.20;73.50;;;;;;5056196;28;20036;-75
2022/12/31 12:35:41;;;;;;;15.20;4.88;;;20.20;73.80;;;;;;5056577;28;20484;-76
2022/12/31 12:38:21;;;;;;;16.25;6.25;;;20.20;73.80;;;;;;5074200;28;20139;-77
2022/12/31 12:40:59;;;;;;;17.25;6.57;;;20.10;74.30;;;;;;5056286;28;20056;-76
2022/12/31 12:43:29;;;;;;;15.00;5.47;;;20.00;73.80;;;;;;5074078;28;20033;-76
2022/12/31 12:45:59;;;;;;;13.85;5.60;;;20.00;73.90;;;;;;5055747;28;20368;-77
2022/12/31 12:48:41;;;;;;;17.30;5.22;;;20.00;74.00;;;;;;5056278;28;20039;-75
2022/12/31 12:51:31;;;;;;;14.00;5.38;;;20.10;74.60;;;;;;5074111;28;20476;-77
2022/12/31 12:54:18;;;;;;;16.65;6.47;;;20.10;74.50;;;;;;5055675;28;20072;-78
2022/12/31 12:57:05;;;;;;;16.15;5.90;;;20.10;74.50;;;;;;5073780;28;20098;-76
2022/12/31 13:00:02;;;;;;;19.95;6.70;;;20.10;74.60;;;;;;5073610;28;20460;-76
2022/12/31 13:02:37;;;;;;;14.60;5.85;;;20.20;74.50;;;;;;5055237;28;20043;-77
2022/12/31 13:05:11;;;;;;;27.35;6.68;;;20.30;74.30;;;;;;5074092;28;20033;-76
2022/12/31 13:08:10;;;;;;;12.70;5.97;;;20.30;74.00;;;;;;5055816;28;20115;-78
2022/12/31 13:11:05;;;;;;;16.38;6.85;;;20.30;73.40;;;;;;5042928;28;20567;-76